Dallas, Texas
Traffic Map
Current Weather Conditions
Dallas, Texas
Scattered Clouds
Scattered Clouds
93°
Feels Like: 100°
Wind Chill: 93° Ceiling: Unl
Heat Index: 100° Visibility: 10mi
Dew Point: 71° Wind: 17mph
Humidity: 49% Direction: 180° (S)
Pressure: 29.84in Gusts: 25mph
Raw Report DataKDAL 241753Z 18015G22KT 10SM FEW043 SCT250 34/22 A2984 RMK AO2 SLP097 T03390217 10344 20283 58008
Traffic Incident Summary
Active as of:
Severity:
Category:
InformationThere was an issue retrieving the traffic information for this location. Please try a different location or try again shortly.
Advertisements